createdAt,value
2023-05-05T00:02:17.107Z,59.65
2023-05-05T00:04:46.188Z,60.10
2023-05-05T00:07:15.145Z,59.69
2023-05-05T00:09:43.182Z,61.55
2023-05-05T00:12:09.790Z,61.97
2023-05-05T00:14:38.617Z,61.69
2023-05-05T00:17:05.314Z,61.44
2023-05-05T00:19:34.227Z,61.64
2023-05-05T00:22:01.040Z,61.62
2023-05-05T00:24:27.842Z,62.33
2023-05-05T00:26:56.825Z,61.83
2023-05-05T00:29:23.390Z,62.54
2023-05-05T00:31:53.410Z,61.78
2023-05-05T00:34:27.285Z,61.47
2023-05-05T00:36:54.032Z,63.45
2023-05-05T00:39:20.684Z,63.85
2023-05-05T00:41:54.739Z,64.22
2023-05-05T00:44:37.059Z,64.83
2023-05-05T00:47:06.555Z,64.19
2023-05-05T00:49:36.118Z,62.31
2023-05-05T00:52:04.225Z,62.43
2023-05-05T00:54:31.048Z,62.35
2023-05-05T00:57:00.347Z,61.65
2023-05-05T00:59:29.158Z,62.36
2023-05-05T01:01:58.259Z,60.49
2023-05-05T01:04:28.033Z,61.33
2023-05-05T01:07:08.871Z,62.19
2023-05-05T01:09:41.395Z,62.55
2023-05-05T01:12:20.040Z,61.64
2023-05-05T01:15:30.642Z,61.48
2023-05-05T01:18:17.425Z,61.38
2023-05-05T01:21:28.140Z,62.06
2023-05-05T01:23:57.301Z,60.93
2023-05-05T01:26:43.927Z,60.60
2023-05-05T01:29:41.625Z,62.54
2023-05-05T01:32:12.956Z,62.06
2023-05-05T01:34:45.297Z,61.13
2023-05-05T01:37:13.787Z,61.25
2023-05-05T01:39:43.372Z,61.00
2023-05-05T01:42:15.164Z,61.56
2023-05-05T01:44:45.689Z,63.24
2023-05-05T01:47:16.231Z,63.70
2023-05-05T01:49:47.831Z,65.07
2023-05-05T01:52:18.418Z,65.44
2023-05-05T01:54:46.637Z,65.81
2023-05-05T01:57:14.810Z,65.18
2023-05-05T01:59:42.003Z,64.65
2023-05-05T02:02:11.293Z,64.12
2023-05-05T02:04:42.695Z,64.72
2023-05-05T02:07:12.769Z,64.38
2023-05-05T02:09:40.989Z,64.47
2023-05-05T02:12:11.055Z,62.90
2023-05-05T02:14:42.630Z,62.48
2023-05-05T02:17:10.072Z,63.08
2023-05-05T02:19:40.149Z,63.71
2023-05-05T02:22:07.270Z,64.10
2023-05-05T02:24:34.579Z,64.12
2023-05-05T02:27:06.324Z,64.59
2023-05-05T02:29:36.501Z,63.75
2023-05-05T02:32:09.540Z,63.99
2023-05-05T02:34:42.112Z,63.79
2023-05-05T02:37:18.024Z,63.38
2023-05-05T02:39:58.949Z,64.59
2023-05-05T02:42:32.242Z,64.38
2023-05-05T02:45:01.968Z,64.78
2023-05-05T02:47:37.865Z,64.51
2023-05-05T02:50:08.386Z,64.41
2023-05-05T02:52:38.124Z,64.97
2023-05-05T02:55:06.072Z,64.96
2023-05-05T02:57:51.525Z,64.36
2023-05-05T03:00:39.099Z,63.91
2023-05-05T03:03:09.364Z,65.23
2023-05-05T03:05:49.821Z,66.09
2023-05-05T03:08:20.743Z,66.07
2023-05-05T03:10:57.591Z,65.35
2023-05-05T03:13:29.415Z,63.89
2023-05-05T03:15:58.644Z,63.38
2023-05-05T03:18:27.299Z,63.25
2023-05-05T03:20:54.652Z,62.72
2023-05-05T03:23:23.432Z,64.54
2023-05-05T03:25:50.295Z,64.16
2023-05-05T03:28:21.364Z,64.43
2023-05-05T03:30:50.597Z,65.00
2023-05-05T03:33:17.370Z,66.00
2023-05-05T03:35:46.477Z,65.99
2023-05-05T03:38:15.133Z,63.96
2023-05-05T03:40:44.669Z,63.93
2023-05-05T03:43:14.339Z,63.02
2023-05-05T03:45:43.234Z,63.67
2023-05-05T03:48:12.267Z,64.75
2023-05-05T03:50:38.862Z,64.21
2023-05-05T03:53:07.990Z,63.41
2023-05-05T03:55:34.432Z,65.13
2023-05-05T03:58:01.064Z,64.80
2023-05-05T04:00:30.085Z,63.38
2023-05-05T04:02:59.248Z,63.57
2023-05-05T04:05:26.288Z,63.89
2023-05-05T04:07:53.016Z,61.44
2023-05-05T04:10:19.626Z,60.78
2023-05-05T04:12:46.640Z,62.19
2023-05-05T04:15:13.344Z,63.06
2023-05-05T04:17:39.991Z,64.25
2023-05-05T04:20:07.416Z,64.11
2023-05-05T04:22:34.117Z,63.75
2023-05-05T04:25:01.271Z,65.35
2023-05-05T04:27:30.002Z,66.04
2023-05-05T04:29:59.516Z,66.12
2023-05-05T04:32:30.914Z,67.60
2023-05-05T04:35:00.052Z,66.79
2023-05-05T04:37:29.218Z,67.34
2023-05-05T04:39:55.801Z,66.84
2023-05-05T04:42:22.429Z,64.96
2023-05-05T04:44:51.249Z,65.34
2023-05-05T04:47:17.904Z,65.38
2023-05-05T04:49:45.234Z,66.98
2023-05-05T04:52:14.827Z,67.98
2023-05-05T04:54:41.426Z,68.52
2023-05-05T04:57:10.609Z,68.28
2023-05-05T04:59:37.398Z,65.89
2023-05-05T05:02:04.586Z,65.97
2023-05-05T05:07:57.152Z,66.93
2023-05-05T05:10:29.874Z,64.80
2023-05-05T05:12:56.528Z,65.08
2023-05-05T05:15:23.194Z,70.75
2023-05-05T05:17:55.278Z,66.64
2023-05-05T05:20:24.256Z,64.38
2023-05-05T05:22:50.978Z,63.08
2023-05-05T05:25:20.130Z,60.43
2023-05-05T05:27:50.166Z,60.46
2023-05-05T05:30:22.491Z,57.72
2023-05-05T05:36:38.760Z,58.33
2023-05-05T05:39:05.421Z,60.92
2023-05-05T05:41:34.910Z,58.47
2023-05-05T05:47:49.043Z,57.37
2023-05-05T05:50:17.976Z,58.17
2023-05-05T05:52:44.624Z,59.50
2023-05-05T05:55:13.762Z,56.21
2023-05-05T05:57:40.701Z,57.35
2023-05-05T06:00:08.375Z,57.45
2023-05-05T06:02:37.794Z,58.27
2023-05-05T06:05:07.082Z,56.20
2023-05-05T06:07:33.661Z,56.50
2023-05-05T06:10:14.556Z,54.77
2023-05-05T06:12:53.788Z,53.97
2023-05-05T06:15:20.397Z,53.70
2023-05-05T06:17:46.986Z,52.81
2023-05-05T06:20:16.679Z,55.50
2023-05-05T06:22:45.980Z,54.04
2023-05-05T06:25:12.532Z,55.01
2023-05-05T06:27:39.107Z,55.49
2023-05-05T06:30:09.831Z,53.39
2023-05-05T06:32:41.347Z,53.91
2023-05-05T06:35:10.735Z,54.47
2023-05-05T06:37:39.945Z,52.20
2023-05-05T06:40:07.980Z,53.25
2023-05-05T06:42:35.994Z,54.25
2023-05-05T06:45:02.642Z,53.42
2023-05-05T06:47:29.291Z,51.92
2023-05-05T06:49:55.862Z,51.31
2023-05-05T06:52:25.163Z,52.78
2023-05-05T06:54:53.958Z,54.17
2023-05-05T06:57:22.793Z,51.82
2023-05-05T06:59:54.451Z,51.23
2023-05-05T07:02:21.026Z,51.49
2023-05-05T07:04:50.199Z,49.27
2023-05-05T07:07:19.080Z,49.08
2023-05-05T07:09:45.834Z,49.37
2023-05-05T07:12:14.711Z,49.82
2023-05-05T07:14:41.356Z,51.67
2023-05-05T07:17:07.928Z,50.42
2023-05-05T07:19:34.531Z,50.81
2023-05-05T07:22:01.211Z,50.31
2023-05-05T07:24:27.862Z,50.65
2023-05-05T07:26:55.733Z,50.85
2023-05-05T07:29:22.278Z,49.15
2023-05-05T07:31:49.035Z,49.35
2023-05-05T07:34:18.190Z,49.06
2023-05-05T07:36:44.867Z,50.06
2023-05-05T07:39:15.352Z,50.68
2023-05-05T07:41:44.798Z,49.42
2023-05-05T07:44:11.656Z,50.09
2023-05-05T07:46:40.599Z,49.89
2023-05-05T07:49:07.275Z,50.10
2023-05-05T07:51:36.507Z,50.27
2023-05-05T07:54:05.842Z,53.76
2023-05-05T07:56:32.411Z,54.28
2023-05-05T07:59:01.570Z,50.23
2023-05-05T08:01:31.740Z,56.35
2023-05-05T08:04:00.915Z,54.84
2023-05-05T08:06:28.840Z,49.25
2023-05-05T08:08:55.736Z,53.88
2023-05-05T08:11:24.751Z,46.76
2023-05-05T08:13:51.593Z,48.14
2023-05-05T08:16:21.223Z,49.49
2023-05-05T08:18:48.038Z,49.22
2023-05-05T08:21:14.627Z,46.99
2023-05-05T08:23:41.198Z,48.29
2023-05-05T08:33:05.742Z,47.80
2023-05-05T08:35:32.340Z,49.32
2023-05-05T08:38:01.349Z,48.39
2023-05-05T08:40:36.538Z,47.88
2023-05-05T08:43:06.676Z,47.87
2023-05-05T08:45:33.453Z,46.69
2023-05-05T08:48:08.533Z,47.08
2023-05-05T08:50:42.150Z,48.99
2023-05-05T08:53:17.063Z,46.42
2023-05-05T08:55:56.100Z,46.84
2023-05-05T08:58:28.831Z,46.97
2023-05-05T09:00:59.070Z,47.55
2023-05-05T09:03:29.548Z,46.93
2023-05-05T09:05:59.008Z,45.71
2023-05-05T09:08:29.398Z,45.06
2023-05-05T09:10:55.994Z,44.88
2023-05-05T09:13:25.371Z,45.33
2023-05-05T09:15:52.117Z,44.97
2023-05-05T09:18:18.738Z,45.60
2023-05-05T09:20:45.423Z,45.46
2023-05-05T09:23:12.920Z,45.42
2023-05-05T09:25:41.318Z,43.17
2023-05-05T09:28:12.179Z,44.45
2023-05-05T09:30:40.984Z,48.21
2023-05-05T09:33:07.777Z,45.80
2023-05-05T09:35:52.436Z,46.42
2023-05-05T09:38:20.700Z,46.80
2023-05-05T09:40:52.442Z,46.78
2023-05-05T09:43:22.017Z,44.92
2023-05-05T09:45:51.691Z,43.31
2023-05-05T09:48:29.733Z,41.37
2023-05-05T09:50:57.538Z,42.36
2023-05-05T09:53:25.171Z,42.22
2023-05-05T09:55:59.199Z,41.35
2023-05-05T09:58:30.709Z,41.15
2023-05-05T10:00:58.566Z,40.61
2023-05-05T10:03:25.933Z,41.21
2023-05-05T10:06:02.827Z,41.47
2023-05-05T10:08:31.562Z,40.14
2023-05-05T10:11:04.088Z,41.01
2023-05-05T10:13:36.203Z,40.19
2023-05-05T10:16:04.663Z,39.90
2023-05-05T10:18:32.338Z,40.17
2023-05-05T10:21:03.541Z,41.67
2023-05-05T10:23:44.402Z,43.49
2023-05-05T10:26:14.104Z,38.81
2023-05-05T10:29:01.383Z,40.65
2023-05-05T10:31:37.166Z,38.65
2023-05-05T10:34:13.381Z,39.48
2023-05-05T10:36:43.023Z,40.74
2023-05-05T10:39:15.202Z,40.46
2023-05-05T10:41:42.159Z,37.41
2023-05-05T10:44:10.867Z,37.47
2023-05-05T10:46:38.201Z,39.42
2023-05-05T10:49:40.503Z,36.87
2023-05-05T10:52:10.228Z,36.91
2023-05-05T10:54:38.325Z,36.46
2023-05-05T10:57:09.749Z,36.88
2023-05-05T10:59:36.821Z,40.83
2023-05-05T11:02:23.589Z,37.76
2023-05-05T11:05:15.075Z,37.99
2023-05-05T11:07:43.113Z,36.53
2023-05-05T11:10:14.270Z,38.84
2023-05-05T11:13:12.664Z,38.50
2023-05-05T11:15:41.877Z,36.56
2023-05-05T11:18:27.920Z,36.31
2023-05-05T11:20:57.456Z,35.09
2023-05-05T11:23:24.244Z,35.13
2023-05-05T11:25:53.717Z,34.37
2023-05-05T11:28:31.351Z,34.44
2023-05-05T11:31:00.953Z,33.92
2023-05-05T11:33:30.684Z,35.44
2023-05-05T11:36:13.247Z,34.57
2023-05-05T11:39:00.160Z,34.76
2023-05-05T11:41:32.849Z,34.15
2023-05-05T11:44:12.516Z,33.92
2023-05-05T11:46:51.348Z,33.74
2023-05-05T11:49:32.419Z,34.07
2023-05-05T11:52:04.495Z,34.26
2023-05-05T11:54:31.830Z,33.88
2023-05-05T11:57:02.013Z,34.18
2023-05-05T11:59:28.667Z,33.41
2023-05-05T12:01:55.346Z,32.40
2023-05-05T12:04:21.972Z,34.08
2023-05-05T12:06:51.022Z,32.71
2023-05-05T12:09:22.198Z,33.12
2023-05-05T12:11:52.367Z,33.07
2023-05-05T12:14:22.052Z,34.12
2023-05-05T12:17:03.114Z,32.91
2023-05-05T12:19:33.136Z,34.20
2023-05-05T12:22:01.270Z,32.62
2023-05-05T12:24:28.361Z,32.61
2023-05-05T12:26:58.033Z,32.09
2023-05-05T12:29:25.848Z,33.72
2023-05-05T12:31:52.546Z,34.14
2023-05-05T12:34:19.474Z,33.38
2023-05-05T12:36:49.011Z,31.63
2023-05-05T12:39:15.641Z,31.75
2023-05-05T12:41:44.998Z,32.38
2023-05-05T12:44:16.621Z,33.64
2023-05-05T12:46:53.042Z,31.84
2023-05-05T12:49:19.611Z,31.68
2023-05-05T12:51:58.790Z,32.70
2023-05-05T12:54:25.379Z,32.47
2023-05-05T12:56:54.357Z,32.31
2023-05-05T12:59:24.198Z,33.40
2023-05-05T13:01:54.208Z,32.54
2023-05-05T13:04:30.262Z,31.24
2023-05-05T13:07:16.537Z,32.18
2023-05-05T13:09:43.621Z,32.23
2023-05-05T13:12:12.771Z,32.52
2023-05-05T13:14:40.876Z,33.08
2023-05-05T13:17:07.675Z,33.60
2023-05-05T13:19:35.824Z,32.19
2023-05-05T13:22:02.426Z,31.94
2023-05-05T13:24:42.114Z,32.55
2023-05-05T13:27:14.267Z,31.83
2023-05-05T13:29:43.774Z,33.39
2023-05-05T13:32:10.436Z,31.80
2023-05-05T13:34:39.086Z,31.36
2023-05-05T13:37:06.069Z,31.72
2023-05-05T13:39:35.531Z,32.42
2023-05-05T13:42:04.462Z,30.81
2023-05-05T13:44:33.350Z,32.18
2023-05-05T13:46:59.969Z,31.36
2023-05-05T13:49:27.036Z,30.79
2023-05-05T13:51:53.785Z,31.02
2023-05-05T13:54:20.397Z,32.70
2023-05-05T13:56:49.377Z,32.56
2023-05-05T13:59:18.149Z,32.54
2023-05-05T14:01:47.175Z,32.79
2023-05-05T14:04:13.764Z,31.64
2023-05-05T14:06:40.430Z,32.29
2023-05-05T14:09:09.027Z,32.30
2023-05-05T14:11:37.800Z,31.31
2023-05-05T14:14:06.960Z,32.62
2023-05-05T14:16:35.915Z,31.14
2023-05-05T14:19:05.233Z,32.61
2023-05-05T14:21:34.061Z,31.64
2023-05-05T14:24:02.885Z,32.12
2023-05-05T14:26:31.527Z,32.41
2023-05-05T14:28:58.088Z,32.79
2023-05-05T14:31:25.066Z,33.03
2023-05-05T14:33:51.738Z,33.65
2023-05-05T14:36:20.667Z,33.49
2023-05-05T14:38:55.047Z,31.94
2023-05-05T14:41:21.707Z,32.97
2023-05-05T14:43:50.534Z,33.87
2023-05-05T14:46:19.409Z,33.84
2023-05-05T14:48:47.321Z,34.42
2023-05-05T14:51:16.424Z,33.99
2023-05-05T14:53:43.020Z,33.64
2023-05-05T14:56:11.850Z,34.15
2023-05-05T14:58:38.458Z,33.42
2023-05-05T15:01:05.331Z,33.56
2023-05-05T15:03:32.356Z,33.43
2023-05-05T15:05:58.976Z,33.82
2023-05-05T15:08:25.695Z,33.63
2023-05-05T15:10:54.509Z,33.01
2023-05-05T15:13:24.094Z,31.87
2023-05-05T15:15:51.375Z,33.59
2023-05-05T15:18:20.386Z,33.11
2023-05-05T15:20:46.967Z,31.39
2023-05-05T15:23:13.559Z,32.26
2023-05-05T15:25:40.137Z,32.26
2023-05-05T15:28:08.909Z,32.39
2023-05-05T15:30:37.860Z,29.05
2023-05-05T15:33:04.605Z,28.95
2023-05-05T15:35:31.335Z,29.08
2023-05-05T15:37:58.064Z,30.83
2023-05-05T15:40:27.431Z,29.54
2023-05-05T15:42:56.739Z,30.85
2023-05-05T15:45:23.680Z,30.55
2023-05-05T15:47:53.739Z,28.82
2023-05-05T15:50:20.678Z,27.98
2023-05-05T15:52:49.339Z,29.06
2023-05-05T15:55:18.895Z,28.73
2023-05-05T15:57:45.519Z,31.43
2023-05-05T16:00:12.655Z,29.87
2023-05-05T16:02:39.685Z,30.67
2023-05-05T16:05:09.461Z,32.90
2023-05-05T16:07:38.627Z,34.84
2023-05-05T16:10:08.280Z,33.96
2023-05-05T16:12:37.412Z,34.07
2023-05-05T16:15:07.143Z,34.57
2023-05-05T16:17:34.024Z,35.09
2023-05-05T16:20:00.752Z,36.34
2023-05-05T16:22:30.110Z,38.69
2023-05-05T16:24:59.072Z,37.39
2023-05-05T16:27:27.722Z,37.91
2023-05-05T16:29:54.153Z,37.49
2023-05-05T16:32:23.321Z,38.26
2023-05-05T16:34:52.255Z,39.32
2023-05-05T16:37:21.090Z,42.08
2023-05-05T16:39:47.750Z,38.47
2023-05-05T16:42:14.297Z,41.51
2023-05-05T16:44:43.318Z,43.00
2023-05-05T16:47:12.964Z,43.88
2023-05-05T16:49:41.823Z,45.70
2023-05-05T16:52:13.163Z,44.10
2023-05-05T16:54:39.730Z,43.96
2023-05-05T16:57:11.141Z,43.56
2023-05-05T16:59:37.683Z,43.05
2023-05-05T17:02:04.412Z,43.79
2023-05-05T17:04:31.002Z,44.29
2023-05-05T17:06:59.607Z,43.52
2023-05-05T17:09:27.332Z,44.45
2023-05-05T17:11:56.520Z,44.62
2023-05-05T17:14:26.557Z,44.61
2023-05-05T17:16:54.389Z,45.45
2023-05-05T17:19:20.948Z,45.28
2023-05-05T17:21:50.268Z,44.64
2023-05-05T17:24:19.211Z,45.47
2023-05-05T17:26:46.217Z,45.49
2023-05-05T17:29:13.240Z,45.65
2023-05-05T17:31:42.941Z,46.97
2023-05-05T17:34:15.511Z,45.96
2023-05-05T17:36:46.804Z,46.17
2023-05-05T17:39:13.721Z,45.97
2023-05-05T17:41:42.046Z,49.03
2023-05-05T17:44:08.641Z,47.51
2023-05-05T17:46:38.378Z,49.19
2023-05-05T17:49:05.171Z,49.29
2023-05-05T17:51:34.326Z,48.92
2023-05-05T17:54:00.866Z,48.99
2023-05-05T17:56:30.455Z,48.47
2023-05-05T17:59:00.718Z,51.15
2023-05-05T18:01:27.298Z,49.46
2023-05-05T18:03:56.099Z,49.72
2023-05-05T18:06:22.606Z,49.49
2023-05-05T18:08:49.418Z,50.54
2023-05-05T18:11:19.306Z,50.01
2023-05-05T18:13:48.200Z,50.02
2023-05-05T18:16:14.707Z,50.86
2023-05-05T18:18:46.004Z,50.82
2023-05-05T18:21:12.597Z,51.19
2023-05-05T18:23:39.991Z,52.78
2023-05-05T18:26:11.153Z,51.98
2023-05-05T18:28:37.713Z,52.41
2023-05-05T18:31:04.278Z,50.62
2023-05-05T18:33:31.094Z,49.62
2023-05-05T18:35:57.927Z,49.01
2023-05-05T18:38:24.792Z,50.93
2023-05-05T18:40:57.058Z,49.98
2023-05-05T18:43:25.899Z,49.97
2023-05-05T18:45:54.815Z,49.27
2023-05-05T18:48:21.494Z,49.30
2023-05-05T18:50:48.993Z,49.98
2023-05-05T18:53:17.846Z,49.03
2023-05-05T18:55:47.222Z,49.47
2023-05-05T18:58:13.875Z,49.65
2023-05-05T19:00:40.482Z,49.67
2023-05-05T19:03:09.261Z,50.24
2023-05-05T19:05:36.090Z,50.56
2023-05-05T19:08:02.669Z,50.02
2023-05-05T19:10:31.363Z,49.97
2023-05-05T19:13:00.957Z,50.00
2023-05-05T19:15:27.634Z,49.53
2023-05-05T19:17:54.687Z,49.89
2023-05-05T19:20:24.273Z,49.51
2023-05-05T19:22:53.405Z,49.99
2023-05-05T19:25:19.979Z,50.19
2023-05-05T19:27:51.317Z,49.98
2023-05-05T19:30:20.620Z,49.90
2023-05-05T19:32:49.687Z,49.24
2023-05-05T19:35:18.887Z,50.37
2023-05-05T19:37:47.976Z,49.97
2023-05-05T19:40:14.538Z,50.60
2023-05-05T19:42:43.509Z,50.47
2023-05-05T19:45:12.457Z,49.88
2023-05-05T19:47:39.093Z,50.04
2023-05-05T19:50:06.429Z,50.50
2023-05-05T19:52:36.781Z,50.06
2023-05-05T19:55:10.342Z,50.31
2023-05-05T19:57:36.960Z,49.73
2023-05-05T20:00:06.714Z,50.30
2023-05-05T20:02:37.340Z,49.76
2023-05-05T20:05:07.436Z,49.86
2023-05-05T20:07:41.673Z,50.77
2023-05-05T20:10:13.106Z,50.09
2023-05-05T20:12:48.289Z,50.69
2023-05-05T20:15:19.487Z,50.19
2023-05-05T20:17:51.474Z,50.36
2023-05-05T20:20:22.583Z,50.89
2023-05-05T20:22:51.427Z,50.95
2023-05-05T20:25:22.824Z,51.14
2023-05-05T20:27:49.525Z,51.46
2023-05-05T20:30:16.171Z,51.82
2023-05-05T20:32:47.462Z,51.55
2023-05-05T20:35:18.866Z,52.18
2023-05-05T20:37:47.667Z,52.54
2023-05-05T20:40:16.973Z,52.89
2023-05-05T20:42:46.057Z,53.65
2023-05-05T20:45:15.278Z,53.63
2023-05-05T20:47:46.817Z,55.36
2023-05-05T20:50:13.700Z,54.43
2023-05-05T20:52:42.458Z,56.17
2023-05-05T20:55:09.193Z,57.36
2023-05-05T20:57:35.819Z,57.27
2023-05-05T21:00:02.569Z,57.18
2023-05-05T21:02:29.758Z,57.10
2023-05-05T21:05:02.409Z,56.81
2023-05-05T21:07:31.322Z,57.45
2023-05-05T21:09:58.124Z,58.49
2023-05-05T21:12:28.312Z,58.90
2023-05-05T21:14:58.746Z,59.55
2023-05-05T21:17:26.832Z,60.34
2023-05-05T21:19:53.911Z,60.78
2023-05-05T21:22:21.282Z,59.73
2023-05-05T21:24:48.232Z,60.13
2023-05-05T21:27:18.466Z,59.16
2023-05-05T21:29:45.039Z,58.79
2023-05-05T21:32:12.020Z,58.67
2023-05-05T21:34:41.600Z,58.44
2023-05-05T21:37:08.460Z,58.07
2023-05-05T21:39:35.415Z,57.43
2023-05-05T21:42:02.028Z,58.44
2023-05-05T21:44:28.645Z,58.92
2023-05-05T21:46:58.634Z,59.65
2023-05-05T21:49:29.974Z,60.17
2023-05-05T21:51:58.954Z,60.08
2023-05-05T21:54:30.353Z,59.19
2023-05-05T21:57:00.199Z,59.25
2023-05-05T21:59:28.735Z,59.11
2023-05-05T22:01:57.884Z,60.61
2023-05-05T22:04:24.521Z,60.95
2023-05-05T22:06:56.599Z,60.19
2023-05-05T22:09:23.276Z,60.75
2023-05-05T22:11:50.821Z,60.48
2023-05-05T22:14:17.514Z,60.75
2023-05-05T22:16:46.614Z,60.01
2023-05-05T22:19:16.405Z,60.49
2023-05-05T22:21:43.386Z,60.31
2023-05-05T22:24:12.352Z,59.97
2023-05-05T22:26:43.096Z,61.31
2023-05-05T22:29:12.831Z,61.17
2023-05-05T22:31:39.515Z,62.50
2023-05-05T22:34:08.655Z,62.41
2023-05-05T22:36:35.338Z,61.28
2023-05-05T22:39:01.995Z,61.44
2023-05-05T22:41:33.410Z,61.53
2023-05-05T22:44:02.208Z,61.73
2023-05-05T22:46:31.016Z,61.94
2023-05-05T22:49:00.072Z,62.01
2023-05-05T22:51:29.378Z,62.92
2023-05-05T22:53:55.993Z,63.54
2023-05-05T22:56:22.657Z,62.86
2023-05-05T22:58:52.203Z,63.14
2023-05-05T23:01:21.082Z,63.00
2023-05-05T23:03:47.828Z,62.79
2023-05-05T23:06:14.526Z,63.19
2023-05-05T23:08:43.382Z,63.17
2023-05-05T23:11:09.996Z,63.41
2023-05-05T23:13:39.045Z,63.28
2023-05-05T23:16:08.093Z,62.33
2023-05-05T23:18:36.362Z,61.49
2023-05-05T23:21:05.679Z,61.92
2023-05-05T23:23:34.724Z,63.06
2023-05-05T23:26:01.333Z,65.03
2023-05-05T23:28:27.901Z,65.36
2023-05-05T23:30:54.555Z,67.15
2023-05-05T23:33:23.385Z,66.72
2023-05-05T23:35:55.126Z,66.92
2023-05-05T23:38:24.115Z,66.54
2023-05-05T23:40:53.629Z,66.42
2023-05-05T23:43:24.972Z,66.42
2023-05-05T23:45:53.734Z,66.66
2023-05-05T23:48:20.531Z,66.30
2023-05-05T23:50:47.128Z,66.82
2023-05-05T23:53:17.806Z,67.26
2023-05-05T23:55:44.401Z,68.20
2023-05-05T23:58:11.009Z,68.08
